Time;durP1;ratioP1;P1;durP2;ratioP2;P2;SDS_P1;SDS_P2;PMS_P1;PMS_P2;Temp;Humidity;BMP_temperature;BMP_pressure;BME280_temperature;BME280_humidity;BME280_pressure;Samples;Min_cycle;Max_cycle;Signal;HPM_P1;HPM_P2
2023/07/28 00:01:39;;;;;;;0.30;0.22;;;24.40;59.60;;;;;;4987833;28;20030;-61
2023/07/28 00:04:07;;;;;;;0.52;0.40;;;24.40;59.70;;;;;;4987324;28;20189;-60
2023/07/28 00:06:33;;;;;;;0.60;0.40;;;24.40;59.70;;;;;;4988520;28;20066;-61
2023/07/28 00:08:59;;;;;;;0.40;0.40;;;24.40;59.70;;;;;;4988351;28;20425;-60
2023/07/28 00:11:25;;;;;;;0.50;0.40;;;24.40;59.70;;;;;;4988561;28;20057;-61
2023/07/28 00:13:51;;;;;;;0.35;0.35;;;24.40;60.30;;;;;;4994664;28;20038;-60
2023/07/28 00:16:17;;;;;;;0.30;0.30;;;24.40;59.70;;;;;;4985827;28;20053;-60
2023/07/28 00:18:42;;;;;;;2.38;0.40;;;24.40;59.70;;;;;;4986704;28;20027;-60
2023/07/28 00:21:08;;;;;;;0.50;0.47;;;24.40;59.80;;;;;;4989835;28;20030;-59
2023/07/28 00:23:34;;;;;;;0.82;0.47;;;24.40;59.70;;;;;;4988755;28;20101;-60
2023/07/28 00:26:00;;;;;;;0.82;0.55;;;24.40;59.80;;;;;;4989860;28;20052;-60
2023/07/28 00:28:26;;;;;;;0.40;0.30;;;24.40;59.80;;;;;;4990015;28;20091;-60
2023/07/28 00:30:52;;;;;;;0.77;0.40;;;24.40;59.80;;;;;;4989284;28;20034;-60
2023/07/28 00:33:19;;;;;;;0.47;0.47;;;24.40;59.80;;;;;;4988936;28;20464;-60
2023/07/28 00:35:44;;;;;;;0.70;0.50;;;24.40;59.80;;;;;;4982345;28;20077;-61
2023/07/28 00:38:10;;;;;;;0.80;0.65;;;24.40;59.90;;;;;;4988659;28;20050;-60
2023/07/28 00:40:39;;;;;;;0.70;0.35;;;24.40;59.90;;;;;;4986579;28;20045;-61
2023/07/28 00:43:05;;;;;;;0.38;0.38;;;24.40;59.90;;;;;;4986270;28;20430;-60
2023/07/28 00:45:33;;;;;;;0.43;0.43;;;24.40;59.90;;;;;;4988538;28;20213;-60
2023/07/28 00:48:00;;;;;;;1.33;0.38;;;24.40;59.90;;;;;;4990143;28;20034;-61
2023/07/28 00:50:27;;;;;;;0.52;0.40;;;24.40;59.90;;;;;;4990963;28;20022;-61
2023/07/28 00:52:55;;;;;;;0.40;0.40;;;24.40;59.90;;;;;;4992213;28;20030;-60
2023/07/28 00:55:22;;;;;;;0.60;0.60;;;24.40;60.00;;;;;;4990596;28;20067;-59
2023/07/28 00:57:48;;;;;;;0.45;0.45;;;24.40;60.00;;;;;;4993809;28;20034;-60
2023/07/28 01:00:13;;;;;;;0.50;0.40;;;24.40;60.00;;;;;;4992727;28;20026;-60
2023/07/28 01:02:40;;;;;;;0.60;0.40;;;24.40;60.00;;;;;;4990763;28;20367;-60
2023/07/28 01:05:07;;;;;;;0.40;0.40;;;24.40;60.00;;;;;;4992649;28;20057;-60
2023/07/28 01:07:56;;;;;;;0.40;0.40;;;24.30;60.00;;;;;;4987818;28;20042;-60
2023/07/28 01:10:30;;;;;;;1.13;0.30;;;24.30;60.00;;;;;;4987369;28;20173;-60
2023/07/28 01:12:56;;;;;;;0.43;0.40;;;24.40;60.00;;;;;;4993612;28;20045;-59
2023/07/28 01:15:22;;;;;;;0.30;0.30;;;24.30;60.00;;;;;;4993026;28;20018;-60
2023/07/28 01:17:50;;;;;;;0.50;0.50;;;24.30;60.00;;;;;;4989587;28;20405;-60
2023/07/28 01:20:16;;;;;;;0.50;0.50;;;24.30;60.70;;;;;;4993320;28;20070;-60
2023/07/28 01:22:57;;;;;;;0.40;0.40;;;24.30;60.10;;;;;;4992069;28;20033;-60
2023/07/28 01:25:23;;;;;;;0.52;0.50;;;24.30;60.10;;;;;;4986704;28;20326;-60
2023/07/28 01:27:51;;;;;;;0.60;0.60;;;24.30;60.10;;;;;;4989267;28;20412;-60
2023/07/28 01:30:17;;;;;;;1.10;0.50;;;24.30;60.10;;;;;;4993014;28;20117;-62
2023/07/28 01:32:43;;;;;;;0.63;0.50;;;24.30;60.10;;;;;;4992955;28;20094;-60
2023/07/28 01:35:09;;;;;;;0.60;0.60;;;24.30;60.10;;;;;;4989636;28;20149;-60
2023/07/28 01:37:35;;;;;;;0.88;0.40;;;24.30;60.10;;;;;;4991581;28;20388;-60
2023/07/28 01:40:01;;;;;;;0.93;0.60;;;24.30;60.10;;;;;;4991965;28;20037;-60
2023/07/28 01:42:27;;;;;;;0.50;0.50;;;24.30;60.10;;;;;;4990894;28;20034;-60
2023/07/28 01:44:53;;;;;;;0.45;0.45;;;24.30;60.10;;;;;;4988195;28;20100;-60
2023/07/28 01:47:19;;;;;;;0.77;0.60;;;24.30;60.10;;;;;;4989998;28;20034;-60
2023/07/28 01:49:45;;;;;;;1.20;0.60;;;24.30;60.20;;;;;;4992436;28;20043;-60
2023/07/28 01:52:10;;;;;;;0.68;0.60;;;24.30;60.20;;;;;;4991758;28;20103;-59
2023/07/28 01:54:36;;;;;;;0.95;0.60;;;24.30;60.20;;;;;;4989739;28;20031;-60
2023/07/28 01:57:02;;;;;;;0.60;0.60;;;24.30;60.30;;;;;;4992554;28;20038;-60
2023/07/28 01:59:28;;;;;;;0.60;0.60;;;24.30;60.20;;;;;;4987880;28;20076;-60
2023/07/28 02:01:54;;;;;;;0.60;0.60;;;24.30;60.30;;;;;;4990448;28;20406;-59
2023/07/28 02:04:20;;;;;;;0.70;0.70;;;24.30;60.30;;;;;;4991527;28;20022;-60
2023/07/28 02:06:46;;;;;;;0.80;0.80;;;24.30;60.30;;;;;;4989403;28;20042;-60
2023/07/28 02:09:12;;;;;;;0.90;0.75;;;24.30;60.30;;;;;;4989824;28;20019;-60
2023/07/28 02:11:37;;;;;;;0.52;0.52;;;24.30;60.30;;;;;;4990418;28;20065;-59
2023/07/28 02:14:03;;;;;;;1.00;0.60;;;24.30;60.30;;;;;;4973943;28;20053;-60
2023/07/28 02:16:30;;;;;;;1.27;0.80;;;24.30;60.30;;;;;;4986594;28;20030;-60
2023/07/28 02:18:56;;;;;;;1.27;0.73;;;24.30;60.30;;;;;;4988215;28;20042;-60
2023/07/28 02:21:22;;;;;;;1.10;0.82;;;24.30;60.30;;;;;;4991355;28;20287;-60
2023/07/28 02:23:49;;;;;;;0.80;0.80;;;24.30;60.30;;;;;;4990662;28;20093;-60
2023/07/28 02:26:14;;;;;;;1.00;0.90;;;24.30;60.30;;;;;;4992081;28;20129;-60
2023/07/28 02:28:40;;;;;;;1.17;1.08;;;24.30;60.40;;;;;;4989362;28;20121;-60
2023/07/28 02:31:06;;;;;;;1.00;0.82;;;24.30;60.40;;;;;;4990339;28;20050;-60
2023/07/28 02:33:35;;;;;;;1.70;1.08;;;24.30;60.40;;;;;;4990728;28;20041;-60
2023/07/28 02:36:01;;;;;;;0.85;0.85;;;24.30;60.40;;;;;;4989599;28;20041;-60
2023/07/28 02:38:27;;;;;;;1.95;1.20;;;24.30;60.40;;;;;;4989468;28;20034;-60
2023/07/28 02:40:53;;;;;;;1.70;1.15;;;24.30;60.40;;;;;;4987797;28;20318;-60
2023/07/28 02:43:19;;;;;;;1.13;1.02;;;24.30;60.40;;;;;;4986176;28;20080;-59
2023/07/28 02:45:53;;;;;;;1.40;1.30;;;24.30;60.50;;;;;;4989427;28;20042;-60
2023/07/28 02:48:21;;;;;;;1.35;1.10;;;24.30;60.40;;;;;;4988641;28;20024;-59
2023/07/28 02:50:47;;;;;;;1.27;1.17;;;24.30;60.50;;;;;;4989142;28;20417;-60
2023/07/28 02:53:14;;;;;;;2.33;1.27;;;24.30;60.50;;;;;;4991524;28;20114;-59
2023/07/28 02:55:44;;;;;;;1.30;1.20;;;24.30;60.50;;;;;;4987631;28;20326;-59
2023/07/28 02:58:10;;;;;;;1.90;1.52;;;24.30;60.50;;;;;;4986263;28;20394;-60
2023/07/28 03:00:40;;;;;;;1.80;1.35;;;24.30;60.50;;;;;;4989243;28;20125;-61
2023/07/28 03:03:10;;;;;;;2.13;1.63;;;24.30;60.50;;;;;;4988333;28;20138;-60
2023/07/28 03:05:37;;;;;;;2.15;1.50;;;24.30;61.20;;;;;;4985653;28;20078;-60
2023/07/28 03:08:15;;;;;;;1.60;1.45;;;24.30;60.60;;;;;;4987604;28;20327;-60
2023/07/28 03:10:42;;;;;;;1.95;1.50;;;24.30;60.60;;;;;;4992405;28;20062;-59
2023/07/28 03:13:08;;;;;;;1.77;1.55;;;24.30;60.60;;;;;;4990636;28;20050;-60
2023/07/28 03:15:34;;;;;;;1.58;1.48;;;24.30;60.60;;;;;;4989939;28;20044;-60
2023/07/28 03:17:59;;;;;;;2.17;1.60;;;24.30;60.60;;;;;;4969405;28;20026;-59
2023/07/28 03:20:25;;;;;;;1.60;1.50;;;24.20;60.50;;;;;;4992124;28;20057;-59
2023/07/28 03:22:51;;;;;;;2.65;1.90;;;24.30;60.60;;;;;;4991886;28;20418;-60
2023/07/28 03:25:17;;;;;;;2.22;1.88;;;24.30;60.60;;;;;;4993611;28;20153;-60
2023/07/28 03:27:45;;;;;;;3.67;1.83;;;24.20;60.60;;;;;;4988261;28;20048;-60
2023/07/28 03:30:11;;;;;;;2.47;1.85;;;24.20;60.60;;;;;;4987413;28;20430;-60
2023/07/28 03:32:37;;;;;;;2.10;1.75;;;24.20;60.60;;;;;;4992102;28;20030;-60
2023/07/28 03:35:05;;;;;;;2.35;2.00;;;24.20;60.60;;;;;;4992454;28;20034;-60
2023/07/28 03:37:32;;;;;;;2.67;2.28;;;24.20;60.60;;;;;;4991854;28;20065;-59
2023/07/28 03:39:59;;;;;;;2.50;2.10;;;24.30;60.70;;;;;;4987633;28;20479;-60
2023/07/28 03:42:35;;;;;;;2.55;1.90;;;24.20;60.60;;;;;;4990805;28;20031;-59
2023/07/28 03:45:01;;;;;;;2.30;2.05;;;24.30;60.70;;;;;;4990369;28;20066;-60
2023/07/28 03:47:26;;;;;;;2.70;2.33;;;24.30;60.70;;;;;;4992173;28;20034;-60
2023/07/28 03:49:52;;;;;;;2.97;2.05;;;24.20;60.70;;;;;;4989163;28;20104;-60
2023/07/28 03:52:18;;;;;;;3.65;2.42;;;24.20;60.70;;;;;;4989133;28;20030;-60
2023/07/28 03:54:44;;;;;;;3.47;2.40;;;24.20;60.70;;;;;;4987831;28;20045;-60
2023/07/28 03:57:10;;;;;;;2.92;2.30;;;24.20;60.70;;;;;;4972368;28;20370;-60
2023/07/28 03:59:36;;;;;;;2.65;2.38;;;24.20;60.70;;;;;;4983781;28;20465;-60
2023/07/28 04:02:02;;;;;;;3.20;2.17;;;24.20;60.70;;;;;;4992567;28;20057;-60
2023/07/28 04:04:28;;;;;;;3.45;2.53;;;24.20;60.80;;;;;;4989847;28;20030;-60
2023/07/28 04:06:54;;;;;;;2.53;2.10;;;24.30;60.90;;;;;;4988941;28;20042;-60
2023/07/28 04:09:20;;;;;;;4.40;2.50;;;24.20;60.80;;;;;;4987763;28;20026;-60
2023/07/28 04:11:46;;;;;;;4.55;2.92;;;24.30;60.90;;;;;;4991191;28;20493;-60
2023/07/28 04:14:14;;;;;;;3.38;2.33;;;24.20;60.80;;;;;;4990255;28;20442;-60
2023/07/28 04:16:40;;;;;;;3.58;2.50;;;24.30;60.90;;;;;;4990465;28;20351;-60
2023/07/28 04:19:06;;;;;;;2.55;2.35;;;24.20;60.90;;;;;;5002387;28;20050;-60
2023/07/28 04:21:32;;;;;;;3.42;2.65;;;24.20;60.90;;;;;;4992659;28;20137;-60
2023/07/28 04:23:58;;;;;;;4.07;2.70;;;24.20;60.90;;;;;;4989511;28;20036;-60
2023/07/28 04:26:25;;;;;;;4.72;2.85;;;24.20;60.90;;;;;;4991076;28;20129;-60
2023/07/28 04:28:57;;;;;;;3.60;2.80;;;24.20;61.60;;;;;;4989238;28;20124;-60
2023/07/28 04:31:23;;;;;;;3.05;2.72;;;24.30;61.00;;;;;;4991394;28;20201;-60
2023/07/28 04:33:56;;;;;;;4.13;3.03;;;24.20;61.00;;;;;;4988629;28;20045;-59
2023/07/28 04:36:24;;;;;;;4.43;2.90;;;24.20;61.00;;;;;;4990991;28;20474;-60
2023/07/28 04:38:51;;;;;;;3.83;2.75;;;24.20;61.10;;;;;;4990379;28;20120;-60
2023/07/28 04:41:16;;;;;;;3.30;2.42;;;24.30;61.10;;;;;;4990590;28;20485;-59
2023/07/28 04:43:53;;;;;;;2.67;2.47;;;24.20;61.10;;;;;;4989060;28;20040;-60
2023/07/28 04:46:20;;;;;;;3.60;3.00;;;24.20;61.10;;;;;;4990175;28;20050;-60
2023/07/28 04:48:51;;;;;;;3.75;2.95;;;24.20;61.10;;;;;;4989510;28;20068;-60
2023/07/28 04:51:35;;;;;;;4.47;2.67;;;24.20;61.10;;;;;;4992352;28;20101;-60
2023/07/28 04:54:23;;;;;;;3.35;2.92;;;24.20;61.20;;;;;;4988763;28;20042;-60
2023/07/28 04:56:53;;;;;;;3.45;2.83;;;24.20;61.20;;;;;;4991019;28;20119;-60
2023/07/28 04:59:20;;;;;;;4.40;3.13;;;24.20;61.30;;;;;;4990344;28;20132;-59
2023/07/28 05:01:47;;;;;;;4.30;2.90;;;24.20;61.30;;;;;;4974892;28;20117;-60
2023/07/28 05:04:12;;;;;;;3.08;2.60;;;24.20;61.30;;;;;;4991570;28;20130;-60
2023/07/28 05:06:38;;;;;;;3.45;2.78;;;24.20;61.30;;;;;;4988781;28;20078;-60
2023/07/28 05:09:04;;;;;;;4.28;2.88;;;24.20;61.30;;;;;;4986871;28;20375;-60
2023/07/28 05:11:35;;;;;;;4.13;2.85;;;24.20;61.30;;;;;;4989847;28;20133;-60
2023/07/28 05:14:01;;;;;;;3.95;2.90;;;24.20;61.40;;;;;;4989881;28;20113;-60
2023/07/28 05:16:27;;;;;;;4.05;2.90;;;24.20;61.40;;;;;;4988613;28;20030;-60
2023/07/28 05:19:09;;;;;;;3.90;2.63;;;24.20;61.40;;;;;;4987655;28;20334;-60
2023/07/28 05:21:54;;;;;;;3.83;2.42;;;24.20;61.40;;;;;;4992095;28;20053;-59
2023/07/28 05:24:26;;;;;;;5.80;3.58;;;24.20;61.40;;;;;;4989946;28;20049;-60
2023/07/28 05:26:51;;;;;;;4.50;3.17;;;24.20;61.50;;;;;;4989669;28;20046;-60
2023/07/28 05:29:18;;;;;;;4.47;3.08;;;24.20;61.40;;;;;;4988959;28;20050;-59
2023/07/28 05:31:46;;;;;;;3.60;3.00;;;24.20;61.40;;;;;;4986267;28;20046;-60
2023/07/28 05:34:22;;;;;;;4.43;3.15;;;24.20;61.40;;;;;;4980637;28;20038;-60
2023/07/28 05:36:48;;;;;;;3.83;3.28;;;24.20;61.40;;;;;;4992956;28;20089;-60
2023/07/28 05:39:14;;;;;;;4.40;3.10;;;24.20;61.50;;;;;;4993690;28;20074;-60
2023/07/28 05:41:43;;;;;;;7.15;3.70;;;24.20;61.50;;;;;;4993379;28;20026;-60
2023/07/28 05:44:11;;;;;;;4.15;3.40;;;24.20;61.50;;;;;;4992552;28;20026;-60
2023/07/28 05:46:37;;;;;;;4.07;3.20;;;24.20;61.50;;;;;;4993401;28;20074;-60
2023/07/28 05:49:03;;;;;;;5.18;3.45;;;24.20;61.50;;;;;;4992066;28;20026;-60
2023/07/28 05:51:29;;;;;;;5.63;3.63;;;24.20;61.60;;;;;;4995498;28;20041;-59
2023/07/28 05:53:55;;;;;;;3.40;3.08;;;24.20;61.50;;;;;;4993640;28;20476;-60
2023/07/28 05:56:21;;;;;;;6.38;3.50;;;24.20;61.60;;;;;;4992800;28;20065;-60
2023/07/28 05:58:48;;;;;;;5.45;3.60;;;24.20;61.60;;;;;;4992804;28;20091;-59
2023/07/28 06:01:14;;;;;;;4.55;3.65;;;24.20;61.60;;;;;;4993086;28;20022;-59
2023/07/28 06:04:08;;;;;;;;;;;24.20;61.60;;;;;;4957653;28;20065;-59
2023/07/28 06:06:41;;;;;;;3.20;2.90;;;24.20;61.60;;;;;;4991268;28;19925;-60
2023/07/28 06:09:07;;;;;;;4.15;3.22;;;24.20;61.60;;;;;;4989366;28;20046;-62
2023/07/28 06:11:34;;;;;;;4.18;3.10;;;24.20;61.60;;;;;;4993272;28;20042;-59
2023/07/28 06:14:02;;;;;;;5.25;3.40;;;24.20;62.30;;;;;;4992579;28;20053;-60
2023/07/28 06:16:28;;;;;;;4.32;3.35;;;24.20;61.70;;;;;;4991518;28;20046;-60
2023/07/28 06:18:54;;;;;;;3.58;3.22;;;24.20;61.70;;;;;;4981050;28;20452;-59
2023/07/28 06:21:22;;;;;;;5.05;3.40;;;24.20;61.70;;;;;;4993284;28;20022;-60
2023/07/28 06:23:48;;;;;;;3.30;3.00;;;24.20;62.00;;;;;;4991934;28;20081;-60
2023/07/28 06:26:14;;;;;;;3.33;3.03;;;24.20;61.70;;;;;;4993323;28;20342;-60
2023/07/28 06:28:40;;;;;;;4.47;3.17;;;24.20;61.80;;;;;;4993328;28;20038;-59
2023/07/28 06:31:06;;;;;;;5.65;3.47;;;24.30;61.80;;;;;;4992440;28;20042;-59
2023/07/28 06:33:32;;;;;;;3.25;2.95;;;24.20;61.80;;;;;;4990064;28;20030;-60
2023/07/28 06:35:58;;;;;;;3.85;3.05;;;24.20;61.80;;;;;;4986685;28;20328;-59
2023/07/28 06:38:24;;;;;;;3.83;3.08;;;24.20;61.80;;;;;;4993223;28;20030;-59
2023/07/28 06:40:50;;;;;;;4.38;3.13;;;24.20;61.80;;;;;;4992307;28;20033;-60
2023/07/28 06:43:18;;;;;;;4.20;3.80;;;24.20;61.80;;;;;;4993182;28;20102;-60
2023/07/28 06:45:47;;;;;;;4.22;3.83;;;24.20;61.90;;;;;;4990955;28;20483;-60
2023/07/28 06:48:13;;;;;;;4.65;3.47;;;24.20;61.90;;;;;;4994167;28;20073;-61
2023/07/28 06:50:38;;;;;;;4.40;3.67;;;24.20;61.90;;;;;;4988462;28;20109;-60
2023/07/28 06:53:05;;;;;;;4.20;3.40;;;24.20;61.90;;;;;;4992221;28;20337;-60
2023/07/28 06:55:31;;;;;;;4.85;3.92;;;24.30;61.90;;;;;;4989707;28;20152;-60
2023/07/28 06:57:57;;;;;;;5.85;3.83;;;24.30;62.00;;;;;;4993030;28;20110;-60
2023/07/28 07:00:23;;;;;;;4.35;3.63;;;24.20;61.90;;;;;;4993142;28;20084;-60
2023/07/28 07:02:49;;;;;;;5.53;3.85;;;24.30;62.00;;;;;;4986155;28;20137;-60
2023/07/28 07:05:15;;;;;;;5.60;3.97;;;24.30;62.00;;;;;;4989695;28;20022;-60
2023/07/28 07:07:41;;;;;;;4.10;3.58;;;24.30;61.90;;;;;;4984774;28;20038;-60
2023/07/28 07:10:08;;;;;;;6.05;3.67;;;24.30;62.00;;;;;;4991864;28;20026;-60
2023/07/28 07:12:34;;;;;;;6.00;4.28;;;24.30;62.00;;;;;;4993178;28;20322;-61
2023/07/28 07:15:00;;;;;;;6.05;4.38;;;24.30;62.00;;;;;;4992240;28;20031;-61
2023/07/28 07:17:26;;;;;;;5.35;3.90;;;24.30;61.90;;;;;;4989422;28;20038;-61
2023/07/28 07:19:52;;;;;;;7.28;4.57;;;24.30;61.90;;;;;;4990082;28;20049;-62
2023/07/28 07:22:18;;;;;;;5.68;3.95;;;24.30;62.00;;;;;;4990546;28;20034;-60
2023/07/28 07:24:44;;;;;;;6.57;4.40;;;24.30;62.00;;;;;;4993797;28;20033;-61
2023/07/28 07:27:12;;;;;;;6.25;4.53;;;24.30;62.00;;;;;;4992770;28;20129;-61
2023/07/28 07:29:39;;;;;;;5.43;4.00;;;24.30;61.90;;;;;;4992357;28;20041;-60
2023/07/28 07:32:06;;;;;;;5.28;4.18;;;24.30;61.90;;;;;;4989125;28;20030;-60
2023/07/28 07:34:34;;;;;;;5.32;4.20;;;24.30;61.90;;;;;;5006331;28;20060;-61
2023/07/28 07:37:00;;;;;;;5.75;4.38;;;24.30;61.90;;;;;;4988344;28;20149;-61
2023/07/28 07:39:26;;;;;;;5.13;4.00;;;24.30;62.20;;;;;;4989136;28;20109;-59
2023/07/28 07:41:51;;;;;;;5.43;4.15;;;24.30;62.00;;;;;;4987615;28;20173;-61
2023/07/28 07:44:17;;;;;;;5.20;4.13;;;24.30;62.00;;;;;;4999040;28;20033;-61
2023/07/28 07:46:43;;;;;;;6.85;4.72;;;24.30;62.10;;;;;;5000411;28;20153;-60
2023/07/28 07:49:09;;;;;;;4.90;4.38;;;24.30;62.10;;;;;;4993222;28;20064;-60
2023/07/28 07:51:35;;;;;;;5.18;4.22;;;24.30;62.10;;;;;;4990622;28;20038;-60
2023/07/28 07:54:01;;;;;;;6.82;4.30;;;24.40;62.10;;;;;;4993096;28;20105;-61
2023/07/28 07:56:27;;;;;;;4.97;4.03;;;24.40;62.10;;;;;;4987931;28;20117;-61
2023/07/28 07:58:53;;;;;;;6.40;4.20;;;24.40;62.10;;;;;;4988680;28;20112;-60
2023/07/28 08:01:19;;;;;;;5.35;4.20;;;24.40;62.00;;;;;;4988419;28;20426;-60
2023/07/28 08:03:45;;;;;;;5.32;4.20;;;24.40;62.10;;;;;;4986961;28;20027;-60
2023/07/28 08:06:12;;;;;;;4.82;3.85;;;24.40;62.00;;;;;;4988211;28;20129;-60
2023/07/28 08:08:38;;;;;;;5.68;3.78;;;24.40;62.00;;;;;;4985104;28;20145;-60
2023/07/28 08:11:04;;;;;;;3.78;3.42;;;24.40;62.00;;;;;;4986065;28;20073;-60
2023/07/28 08:13:30;;;;;;;5.53;3.92;;;24.40;62.00;;;;;;4985654;28;20448;-60
2023/07/28 08:15:56;;;;;;;4.05;3.63;;;24.40;62.10;;;;;;4989868;28;20022;-61
2023/07/28 08:18:22;;;;;;;4.75;3.72;;;24.40;62.00;;;;;;4988834;28;20366;-61
2023/07/28 08:20:48;;;;;;;5.38;3.90;;;24.40;62.00;;;;;;4989823;28;20105;-60
2023/07/28 08:23:14;;;;;;;4.55;3.40;;;24.40;62.00;;;;;;4990491;28;20137;-60
2023/07/28 08:25:40;;;;;;;3.80;3.25;;;24.40;62.00;;;;;;4991600;28;20046;-60
2023/07/28 08:28:06;;;;;;;5.43;3.88;;;24.40;62.00;;;;;;4992502;28;20108;-61
2023/07/28 08:30:32;;;;;;;5.05;4.03;;;24.40;61.90;;;;;;4991663;28;20037;-61
2023/07/28 08:32:59;;;;;;;5.53;4.05;;;24.50;62.00;;;;;;4992589;28;20421;-61
2023/07/28 08:35:24;;;;;;;4.72;3.33;;;24.50;62.00;;;;;;4987370;28;20026;-60
2023/07/28 08:37:50;;;;;;;4.53;3.53;;;24.50;61.90;;;;;;4990968;28;20071;-62
2023/07/28 08:40:16;;;;;;;4.45;3.63;;;24.50;61.90;;;;;;4990721;28;20034;-60
2023/07/28 08:42:43;;;;;;;6.22;4.28;;;24.50;61.90;;;;;;4991607;28;20026;-60
2023/07/28 08:45:09;;;;;;;5.07;3.53;;;24.50;61.90;;;;;;4992212;28;20026;-62
2023/07/28 08:47:37;;;;;;;4.10;3.33;;;24.50;61.90;;;;;;4990121;28;20465;-63
2023/07/28 08:50:03;;;;;;;3.35;3.00;;;24.40;61.80;;;;;;4985992;28;20092;-62
2023/07/28 08:52:29;;;;;;;6.55;3.78;;;24.50;61.90;;;;;;4990338;28;20018;-62
2023/07/28 08:54:57;;;;;;;4.13;3.15;;;24.50;61.90;;;;;;4989434;28;20061;-62
2023/07/28 08:57:24;;;;;;;4.30;3.20;;;24.50;61.90;;;;;;4990232;28;20033;-63
2023/07/28 08:59:55;;;;;;;4.28;3.60;;;24.60;61.90;;;;;;4989543;28;20066;-63
2023/07/28 09:02:25;;;;;;;4.57;3.53;;;24.70;61.70;;;;;;4991665;28;20022;-62
2023/07/28 09:04:51;;;;;;;5.55;3.30;;;24.70;61.60;;;;;;4990153;28;20030;-64
2023/07/28 09:07:17;;;;;;;3.70;3.28;;;24.80;61.40;;;;;;4989962;28;20039;-62
2023/07/28 09:09:44;;;;;;;4.03;3.20;;;24.90;61.20;;;;;;4991774;28;20045;-63
2023/07/28 09:12:10;;;;;;;3.38;3.00;;;25.00;60.90;;;;;;4993271;28;20434;-66
2023/07/28 09:14:38;;;;;;;3.75;3.13;;;25.20;60.70;;;;;;4995839;28;20315;-63
2023/07/28 09:17:16;;;;;;;2.80;2.50;;;25.30;60.50;;;;;;4995269;28;20030;-60
2023/07/28 09:19:56;;;;;;;3.60;2.78;;;25.40;60.20;;;;;;4995076;28;20030;-60
2023/07/28 09:22:22;;;;;;;3.28;2.97;;;25.50;59.90;;;;;;4993479;28;20050;-61
2023/07/28 09:24:50;;;;;;;3.40;2.83;;;25.60;59.80;;;;;;4994821;28;20169;-60
2023/07/28 09:27:25;;;;;;;4.03;2.90;;;25.60;59.50;;;;;;4991861;28;20095;-62
2023/07/28 09:29:54;;;;;;;3.17;2.88;;;25.70;59.30;;;;;;4992073;28;20066;-60
2023/07/28 09:32:29;;;;;;;4.07;3.15;;;25.70;59.10;;;;;;4989638;28;20041;-61
2023/07/28 09:35:15;;;;;;;4.30;2.65;;;25.70;59.00;;;;;;4991744;28;20045;-62
2023/07/28 09:37:43;;;;;;;3.55;2.75;;;25.70;58.90;;;;;;4991177;28;20026;-60
2023/07/28 09:40:19;;;;;;;3.92;3.10;;;25.70;58.90;;;;;;4990706;28;20033;-60
2023/07/28 09:42:49;;;;;;;3.28;2.80;;;25.70;58.80;;;;;;4987961;28;20117;-61
2023/07/28 09:45:17;;;;;;;3.22;2.50;;;25.60;58.70;;;;;;4990710;28;20414;-61
2023/07/28 09:47:45;;;;;;;4.07;3.20;;;25.70;59.40;;;;;;4992043;28;20057;-60
2023/07/28 09:50:14;;;;;;;3.90;3.15;;;25.60;58.70;;;;;;4991753;28;20061;-61
2023/07/28 09:52:44;;;;;;;2.90;2.60;;;25.60;58.80;;;;;;4988861;28;20030;-62
2023/07/28 09:55:13;;;;;;;4.22;2.97;;;25.60;58.80;;;;;;4988373;28;20023;-59
2023/07/28 09:58:08;;;;;;;3.50;3.17;;;25.60;58.80;;;;;;4991386;28;20057;-60
2023/07/28 10:00:35;;;;;;;4.35;3.13;;;25.60;58.80;;;;;;4986825;28;20038;-60
2023/07/28 10:03:02;;;;;;;3.35;2.80;;;25.60;58.90;;;;;;4989963;28;20054;-60
2023/07/28 10:05:29;;;;;;;3.65;3.10;;;25.60;59.00;;;;;;4989478;28;20041;-60
2023/07/28 10:07:56;;;;;;;4.97;2.88;;;25.60;59.00;;;;;;4989807;28;20315;-61
2023/07/28 10:10:23;;;;;;;3.33;3.03;;;25.60;59.10;;;;;;4990953;28;20167;-60
2023/07/28 10:12:51;;;;;;;4.22;3.13;;;25.50;59.00;;;;;;4990819;28;20046;-60
2023/07/28 10:15:18;;;;;;;3.22;2.92;;;25.50;59.00;;;;;;4988783;28;20033;-60
2023/07/28 10:17:55;;;;;;;3.38;3.08;;;25.50;59.00;;;;;;4988446;28;20026;-60
2023/07/28 10:20:30;;;;;;;2.90;2.63;;;25.50;59.00;;;;;;4990965;28;20160;-62
2023/07/28 10:23:13;;;;;;;3.92;2.95;;;25.50;59.00;;;;;;4990318;28;20026;-61
2023/07/28 10:25:40;;;;;;;4.10;2.75;;;25.50;59.00;;;;;;4990334;28;20090;-61
2023/07/28 10:28:24;;;;;;;3.30;3.00;;;25.50;59.00;;;;;;4989244;28;20322;-60
2023/07/28 10:30:54;;;;;;;;;;;25.50;59.00;;;;;;4991325;28;20057;-61
2023/07/28 10:33:28;;;;;;;3.00;2.70;;;25.50;59.10;;;;;;4989041;28;19938;-60
2023/07/28 10:35:54;;;;;;;3.20;2.90;;;25.50;59.00;;;;;;4988774;28;20101;-61
2023/07/28 10:38:33;;;;;;;3.30;3.00;;;25.40;59.00;;;;;;4989298;28;20054;-61
2023/07/28 10:41:10;;;;;;;3.72;2.88;;;25.50;58.90;;;;;;4988748;28;20146;-60
2023/07/28 10:43:37;;;;;;;3.35;3.05;;;25.50;59.00;;;;;;4989593;28;20037;-60
2023/07/28 10:46:06;;;;;;;3.53;3.03;;;25.50;58.90;;;;;;4989067;28;20100;-62
2023/07/28 10:48:32;;;;;;;3.42;2.80;;;25.40;58.90;;;;;;4989914;28;20033;-60
2023/07/28 10:50:58;;;;;;;3.20;2.90;;;25.50;58.90;;;;;;4990106;28;20030;-61
2023/07/28 10:53:23;;;;;;;3.28;2.88;;;25.40;58.80;;;;;;4993019;28;20029;-61
2023/07/28 10:55:50;;;;;;;3.47;3.15;;;25.50;58.80;;;;;;4991521;28;20049;-60
2023/07/28 10:58:16;;;;;;;4.32;3.25;;;25.50;58.80;;;;;;4988094;28;20034;-63
2023/07/28 11:00:41;;;;;;;3.50;3.20;;;25.40;58.70;;;;;;4990865;28;20023;-56
2023/07/28 11:03:09;;;;;;;3.25;2.95;;;25.50;58.80;;;;;;4989256;28;20078;-62
2023/07/28 11:05:35;;;;;;;3.35;3.00;;;25.50;58.80;;;;;;4988238;28;20096;-60
2023/07/28 11:08:02;;;;;;;3.40;3.13;;;25.50;58.80;;;;;;4992179;28;20034;-61
2023/07/28 11:10:29;;;;;;;3.95;3.22;;;25.50;58.80;;;;;;4992991;28;20050;-63
2023/07/28 11:13:00;;;;;;;3.63;3.33;;;25.50;58.70;;;;;;4974622;28;20349;-61
2023/07/28 11:15:26;;;;;;;3.50;3.20;;;25.50;58.70;;;;;;4977107;28;20034;-60
2023/07/28 11:17:53;;;;;;;3.90;3.45;;;25.50;58.60;;;;;;4993841;28;20039;-61
2023/07/28 11:20:23;;;;;;;3.60;3.30;;;25.60;58.70;;;;;;4992450;28;20041;-61
2023/07/28 11:22:56;;;;;;;3.20;2.88;;;25.50;58.50;;;;;;4993625;28;20058;-62
2023/07/28 11:25:24;;;;;;;3.92;3.25;;;25.50;58.40;;;;;;4993497;28;20130;-60
2023/07/28 11:27:51;;;;;;;3.45;3.00;;;25.60;58.50;;;;;;4990833;28;20030;-62
2023/07/28 11:30:19;;;;;;;4.05;3.65;;;25.60;58.40;;;;;;4993539;28;20031;-61
2023/07/28 11:32:46;;;;;;;5.60;3.03;;;25.60;58.30;;;;;;4993927;28;20034;-60
2023/07/28 11:35:15;;;;;;;3.58;3.17;;;25.60;58.30;;;;;;4992677;28;20030;-62
2023/07/28 11:37:44;;;;;;;3.47;3.17;;;25.60;58.20;;;;;;4993182;28;20030;-63
2023/07/28 11:40:21;;;;;;;3.55;3.25;;;25.60;58.10;;;;;;5000903;28;20065;-60
2023/07/28 11:42:50;;;;;;;3.60;3.30;;;25.60;58.00;;;;;;4991165;28;20053;-60
2023/07/28 11:45:22;;;;;;;3.85;3.08;;;25.60;58.00;;;;;;4979043;28;20030;-61
2023/07/28 11:47:56;;;;;;;3.70;3.10;;;25.60;57.90;;;;;;4992010;28;20030;-62
2023/07/28 11:50:25;;;;;;;3.78;3.38;;;25.60;57.90;;;;;;4992149;28;20014;-63
2023/07/28 11:52:51;;;;;;;4.28;3.30;;;25.60;57.90;;;;;;4992717;28;20101;-61
2023/07/28 11:55:19;;;;;;;3.40;3.10;;;25.60;57.90;;;;;;4992760;28;20529;-60
2023/07/28 11:57:45;;;;;;;4.38;3.15;;;25.60;57.80;;;;;;4993052;28;20034;-62
2023/07/28 12:00:16;;;;;;;3.97;3.33;;;25.60;57.80;;;;;;4991443;28;20057;-61
2023/07/28 12:02:42;;;;;;;3.40;3.10;;;25.60;57.80;;;;;;4984483;28;20115;-60
2023/07/28 12:05:18;;;;;;;4.47;3.80;;;25.60;57.80;;;;;;4989336;28;20070;-61
2023/07/28 12:07:48;;;;;;;3.88;3.35;;;25.60;57.80;;;;;;4984328;28;20065;-60
2023/07/28 12:10:15;;;;;;;3.17;2.88;;;25.60;57.70;;;;;;4988003;28;20033;-61
2023/07/28 12:12:45;;;;;;;3.30;2.95;;;25.70;57.80;;;;;;4985873;28;20114;-60
2023/07/28 12:15:28;;;;;;;5.25;3.20;;;25.70;57.70;;;;;;4987239;28;20582;-59
2023/07/28 12:18:14;;;;;;;6.43;3.25;;;25.70;58.40;;;;;;4986049;28;20026;-59
2023/07/28 12:20:46;;;;;;;3.55;3.10;;;25.70;57.90;;;;;;4986609;28;20032;-59
2023/07/28 12:23:14;;;;;;;3.63;3.00;;;25.80;58.10;;;;;;4986318;28;20040;-58
2023/07/28 12:25:39;;;;;;;4.25;3.60;;;25.80;58.10;;;;;;4988520;28;20137;-57
2023/07/28 12:28:06;;;;;;;3.55;3.20;;;25.80;58.20;;;;;;4986790;28;20042;-60
2023/07/28 12:30:35;;;;;;;3.47;3.10;;;25.80;58.30;;;;;;4987803;28;20434;-59
2023/07/28 12:33:01;;;;;;;3.53;3.10;;;25.80;58.40;;;;;;4992238;28;20129;-61
2023/07/28 12:35:32;;;;;;;3.83;3.28;;;25.80;58.30;;;;;;4987846;28;20053;-63
2023/07/28 12:38:03;;;;;;;3.88;3.47;;;25.90;58.30;;;;;;4985245;28;20098;-61
2023/07/28 12:40:29;;;;;;;3.30;3.00;;;25.90;58.20;;;;;;4986444;28;20276;-62
2023/07/28 12:42:56;;;;;;;3.22;2.90;;;25.90;58.10;;;;;;4988241;28;20109;-62
2023/07/28 12:45:22;;;;;;;2.95;2.75;;;25.90;57.90;;;;;;4987799;28;20030;-64
2023/07/28 12:47:48;;;;;;;3.60;3.00;;;25.90;57.80;;;;;;4988038;28;20053;-61
2023/07/28 12:50:14;;;;;;;3.40;3.10;;;25.90;57.70;;;;;;4986883;28;20042;-60
2023/07/28 12:52:40;;;;;;;3.90;3.03;;;25.90;57.60;;;;;;4988191;28;20027;-63